createdAt,value
2018-08-18T00:02:26.934Z,16.43
2018-08-18T00:05:01.884Z,16.30
2018-08-18T00:07:37.126Z,15.17
2018-08-18T00:10:13.986Z,15.50
2018-08-18T00:12:49.078Z,17.03
2018-08-18T00:15:24.484Z,16.23
2018-08-18T00:17:59.249Z,18.13
2018-08-18T00:20:34.606Z,17.33
2018-08-18T00:23:10.507Z,19.93
2018-08-18T00:25:45.669Z,17.73
2018-08-18T00:28:25.187Z,18.07
2018-08-18T00:31:00.319Z,17.10
2018-08-18T00:33:35.485Z,15.27
2018-08-18T00:36:10.433Z,17.40
2018-08-18T00:38:45.334Z,17.77
2018-08-18T00:41:20.241Z,15.53
2018-08-18T00:43:55.945Z,15.30
2018-08-18T00:46:32.003Z,16.03
2018-08-18T00:49:07.651Z,15.30
2018-08-18T00:51:42.789Z,14.23
2018-08-18T00:54:17.418Z,14.60
2018-08-18T00:56:52.330Z,16.20
2018-08-18T00:59:40.098Z,16.43
2018-08-18T01:02:14.926Z,15.40
2018-08-18T01:04:56.949Z,14.87
2018-08-18T01:07:32.767Z,16.80
2018-08-18T01:10:08.470Z,14.43
2018-08-18T01:12:43.302Z,15.43
2018-08-18T01:15:24.613Z,15.33
2018-08-18T01:17:59.657Z,14.77
2018-08-18T01:20:35.029Z,14.57
2018-08-18T01:23:09.986Z,17.23
2018-08-18T01:25:44.930Z,14.50
2018-08-18T01:28:20.653Z,13.60
2018-08-18T01:31:07.086Z,14.77
2018-08-18T01:33:42.072Z,13.77
2018-08-18T01:36:16.815Z,14.63
2018-08-18T01:38:51.677Z,14.40
2018-08-18T01:41:26.474Z,15.03
2018-08-18T01:44:32.517Z,15.43
2018-08-18T01:47:09.683Z,14.73
2018-08-18T01:49:44.929Z,13.93
2018-08-18T01:52:26.249Z,12.70
2018-08-18T01:55:01.034Z,12.40
2018-08-18T01:57:35.930Z,13.23
2018-08-18T02:00:23.865Z,12.40
2018-08-18T02:02:58.659Z,11.93
2018-08-18T02:05:33.449Z,13.13
2018-08-18T02:08:08.601Z,13.33
2018-08-18T02:10:43.868Z,13.83
2018-08-18T02:13:18.763Z,13.73
2018-08-18T02:15:53.938Z,13.90
2018-08-18T02:18:28.590Z,15.20
2018-08-18T02:21:03.311Z,13.50
2018-08-18T02:23:38.258Z,12.63
2018-08-18T02:26:13.625Z,13.27
2018-08-18T02:28:48.522Z,11.70
2018-08-18T02:31:23.233Z,12.37
2018-08-18T02:33:58.055Z,11.77
2018-08-18T02:36:32.779Z,13.80
2018-08-18T02:39:07.893Z,14.47
2018-08-18T02:41:54.301Z,13.27
2018-08-18T02:44:29.221Z,13.37
2018-08-18T02:47:03.971Z,13.80
2018-08-18T02:49:44.830Z,14.40
2018-08-18T02:52:28.318Z,15.07
2018-08-18T02:55:04.549Z,15.97
2018-08-18T02:57:43.661Z,16.13
2018-08-18T03:00:24.145Z,17.30
2018-08-18T03:02:59.125Z,17.77
2018-08-18T03:05:33.856Z,18.33
2018-08-18T03:08:08.833Z,16.57
2018-08-18T03:10:43.622Z,16.17
2018-08-18T03:13:18.685Z,17.93
2018-08-18T03:15:53.538Z,22.23
2018-08-18T03:18:51.393Z,22.10
2018-08-18T03:21:31.625Z,24.83
2018-08-18T03:24:16.138Z,23.77
2018-08-18T03:26:54.458Z,23.47
2018-08-18T03:29:30.310Z,24.57
2018-08-18T03:32:05.857Z,25.50
2018-08-18T03:34:40.717Z,25.90
2018-08-18T03:37:26.833Z,28.37
2018-08-18T03:40:01.576Z,29.33
2018-08-18T03:42:40.706Z,32.07
2018-08-18T03:45:15.459Z,25.40
2018-08-18T03:47:50.510Z,18.93
2018-08-18T03:50:30.099Z,23.17
2018-08-18T03:53:04.754Z,26.07
2018-08-18T03:55:40.317Z,31.63
2018-08-18T03:58:15.489Z,34.87
2018-08-18T04:00:50.762Z,33.60
2018-08-18T04:03:25.453Z,38.53
2018-08-18T04:06:00.127Z,41.47
2018-08-18T04:08:35.133Z,42.43
2018-08-18T04:11:10.121Z,35.13
2018-08-18T04:13:44.944Z,37.57
2018-08-18T04:16:19.822Z,36.53
2018-08-18T04:18:59.783Z,33.27
2018-08-18T04:21:34.957Z,42.03
2018-08-18T04:24:10.382Z,35.43
2018-08-18T04:26:47.786Z,40.23
2018-08-18T04:29:22.553Z,41.57
2018-08-18T04:31:59.401Z,47.30
2018-08-18T04:34:34.969Z,38.80
2018-08-18T04:37:09.713Z,34.70
2018-08-18T04:39:44.539Z,38.03
2018-08-18T04:42:19.389Z,37.00
2018-08-18T04:44:54.673Z,35.40
2018-08-18T04:47:30.880Z,36.93
2018-08-18T04:50:05.654Z,40.27
2018-08-18T04:52:41.241Z,39.47
2018-08-18T04:55:16.451Z,41.03
2018-08-18T04:57:51.713Z,44.17
2018-08-18T05:00:27.864Z,36.37
2018-08-18T05:03:03.209Z,39.37
2018-08-18T05:05:38.011Z,42.90
2018-08-18T05:08:12.812Z,42.83
2018-08-18T05:10:47.630Z,37.67
2018-08-18T05:13:22.754Z,37.10
2018-08-18T05:15:57.725Z,40.50
2018-08-18T05:18:32.673Z,35.77
2018-08-18T05:21:07.357Z,38.03
2018-08-18T05:23:42.400Z,38.23
2018-08-18T05:26:17.297Z,40.63
2018-08-18T05:28:51.946Z,41.03
2018-08-18T05:31:26.730Z,40.83
2018-08-18T05:34:02.010Z,46.23
2018-08-18T05:36:36.808Z,42.50
2018-08-18T05:39:12.195Z,44.10
2018-08-18T05:41:46.809Z,45.00
2018-08-18T05:44:21.934Z,39.97
2018-08-18T05:46:56.788Z,44.37
2018-08-18T05:49:31.577Z,44.03
2018-08-18T05:52:06.857Z,38.67
2018-08-18T05:54:42.513Z,37.63
2018-08-18T05:57:17.869Z,41.10
2018-08-18T05:59:53.381Z,42.47
2018-08-18T06:02:28.548Z,38.90
2018-08-18T06:05:03.897Z,43.10
2018-08-18T06:07:39.010Z,43.40
2018-08-18T06:10:14.121Z,38.67
2018-08-18T06:12:49.174Z,39.07
2018-08-18T06:15:24.322Z,38.33
2018-08-18T06:17:59.267Z,36.93
2018-08-18T06:20:34.187Z,37.10
2018-08-18T06:23:08.822Z,39.27
2018-08-18T06:25:43.752Z,39.17
2018-08-18T06:28:18.789Z,35.87
2018-08-18T06:30:53.708Z,37.43
2018-08-18T06:33:28.741Z,41.07
2018-08-18T06:36:04.081Z,39.83
2018-08-18T06:38:39.728Z,36.53
2018-08-18T06:41:14.475Z,35.37
2018-08-18T06:43:49.661Z,35.97
2018-08-18T06:46:25.157Z,32.47
2018-08-18T06:49:00.614Z,37.17
2018-08-18T06:51:36.133Z,35.68
2018-08-18T06:54:11.009Z,32.67
2018-08-18T06:56:46.267Z,38.33
2018-08-18T06:59:21.674Z,34.85
2018-08-18T07:01:57.089Z,37.93
2018-08-18T07:04:32.493Z,36.75
2018-08-18T07:07:08.229Z,32.63
2018-08-18T07:09:42.982Z,36.70
2018-08-18T07:12:18.389Z,42.95
2018-08-18T07:15:02.764Z,39.92
2018-08-18T07:17:38.673Z,38.13
2018-08-18T07:20:14.481Z,38.35
2018-08-18T07:22:49.568Z,40.60
2018-08-18T07:25:24.770Z,37.17
2018-08-18T07:28:05.477Z,34.18
2018-08-18T07:30:40.837Z,31.95
2018-08-18T07:33:16.564Z,29.35
2018-08-18T07:35:52.622Z,29.10
2018-08-18T07:38:27.957Z,29.45
2018-08-18T07:41:03.641Z,29.55
2018-08-18T07:43:39.187Z,27.15
2018-08-18T07:46:14.399Z,27.15
2018-08-18T07:48:50.274Z,28.57
2018-08-18T07:51:33.415Z,28.73
2018-08-18T07:54:08.772Z,30.27
2018-08-18T07:56:44.146Z,30.57
2018-08-18T07:59:19.437Z,29.98
2018-08-18T08:01:55.015Z,29.60
2018-08-18T08:04:30.493Z,27.70
2018-08-18T08:07:05.969Z,28.52
2018-08-18T08:12:42.415Z,27.45
2018-08-18T08:15:18.614Z,29.05
2018-08-18T08:17:53.939Z,29.55
2018-08-18T08:20:29.862Z,30.88
2018-08-18T08:23:05.771Z,28.65
2018-08-18T08:25:41.286Z,29.35
2018-08-18T08:28:16.994Z,28.00
2018-08-18T08:30:52.487Z,28.60
2018-08-18T08:33:37.126Z,27.73
2018-08-18T08:36:15.197Z,27.67
2018-08-18T08:38:57.804Z,27.52
2018-08-18T08:41:33.707Z,27.93
2018-08-18T08:44:09.166Z,27.80
2018-08-18T08:46:57.184Z,27.93
2018-08-18T08:49:32.610Z,27.93
2018-08-18T08:52:08.448Z,27.50
2018-08-18T08:54:44.457Z,27.22
2018-08-18T08:57:19.778Z,26.42
2018-08-18T08:59:55.246Z,24.72
2018-08-18T09:02:30.638Z,24.10
2018-08-18T09:05:07.365Z,24.40
2018-08-18T09:07:42.885Z,23.70
2018-08-18T09:10:19.062Z,22.98
2018-08-18T09:12:54.429Z,23.25
2018-08-18T09:15:29.950Z,22.58
2018-08-18T09:18:05.892Z,20.30
2018-08-18T09:20:46.211Z,21.23
2018-08-18T09:23:21.893Z,20.12
2018-08-18T09:25:57.741Z,21.65
2018-08-18T09:28:33.398Z,21.35
2018-08-18T09:31:08.756Z,19.95
2018-08-18T09:33:44.005Z,21.95
2018-08-18T09:36:20.016Z,21.62
2018-08-18T09:38:55.323Z,22.10
2018-08-18T09:41:31.157Z,21.77
2018-08-18T09:44:06.616Z,22.42
2018-08-18T09:46:42.485Z,21.85
2018-08-18T09:49:18.317Z,22.95
2018-08-18T09:51:53.740Z,22.73
2018-08-18T09:54:29.702Z,22.13
2018-08-18T09:57:05.469Z,22.40
2018-08-18T09:59:41.493Z,22.48
2018-08-18T10:02:16.768Z,21.73
2018-08-18T10:04:52.649Z,21.85
2018-08-18T10:07:28.060Z,21.45
2018-08-18T10:10:03.757Z,22.85
2018-08-18T10:12:39.017Z,20.95
2018-08-18T10:15:14.620Z,20.80
2018-08-18T10:17:50.766Z,21.12
2018-08-18T10:20:26.586Z,22.13
2018-08-18T10:23:02.121Z,19.25
2018-08-18T10:25:37.584Z,19.35
2018-08-18T10:28:12.884Z,19.73
2018-08-18T10:30:51.242Z,17.25
2018-08-18T10:33:27.307Z,18.82
2018-08-18T10:36:03.861Z,18.50
2018-08-18T10:38:39.448Z,18.82
2018-08-18T10:41:15.037Z,18.40
2018-08-18T10:43:50.476Z,20.27
2018-08-18T10:46:25.889Z,17.37
2018-08-18T10:49:01.261Z,17.90
2018-08-18T10:51:47.589Z,15.37
2018-08-18T10:54:23.057Z,16.50
2018-08-18T10:56:58.432Z,13.13
2018-08-18T10:59:44.806Z,15.50
2018-08-18T11:02:32.058Z,15.30
2018-08-18T11:05:07.965Z,15.73
2018-08-18T11:07:44.262Z,12.60
2018-08-18T11:10:19.314Z,11.97
2018-08-18T11:12:54.954Z,13.60
2018-08-18T11:15:30.271Z,12.27
2018-08-18T11:18:05.987Z,14.43
2018-08-18T11:20:41.406Z,13.80
2018-08-18T11:23:16.526Z,12.57
2018-08-18T11:25:52.939Z,12.40
2018-08-18T11:28:28.014Z,14.97
2018-08-18T11:31:03.335Z,14.70
2018-08-18T11:33:40.949Z,13.07
2018-08-18T11:36:16.018Z,10.93
2018-08-18T11:38:51.306Z,10.93
2018-08-18T11:41:27.213Z,11.67
2018-08-18T11:44:02.998Z,11.17
2018-08-18T11:46:41.282Z,13.37
2018-08-18T11:49:16.742Z,10.67
2018-08-18T11:51:52.216Z,11.23
2018-08-18T11:54:27.212Z,10.50
2018-08-18T11:57:03.269Z,10.03
2018-08-18T11:59:38.225Z,12.20
2018-08-18T12:02:13.382Z,12.33
2018-08-18T12:04:49.392Z,11.83
2018-08-18T12:07:24.426Z,10.50
2018-08-18T12:09:59.545Z,12.13
2018-08-18T12:12:35.143Z,12.10
2018-08-18T12:15:10.384Z,10.33
2018-08-18T12:17:55.508Z,10.83
2018-08-18T12:20:31.280Z,10.43
2018-08-18T12:23:07.274Z,10.40
2018-08-18T12:25:42.566Z,10.27
2018-08-18T12:28:17.784Z,9.27
2018-08-18T12:30:53.469Z,9.17
2018-08-18T12:33:30.566Z,11.50
2018-08-18T12:36:05.922Z,11.03
2018-08-18T12:38:42.591Z,11.00
2018-08-18T12:41:17.988Z,11.00
2018-08-18T12:43:55.373Z,11.03
2018-08-18T12:46:37.137Z,11.43
2018-08-18T12:49:12.390Z,11.20
2018-08-18T12:51:48.008Z,10.00
2018-08-18T12:54:23.280Z,9.07
2018-08-18T12:56:58.271Z,10.03
2018-08-18T12:59:34.400Z,10.37
2018-08-18T13:02:09.471Z,8.93
2018-08-18T13:04:44.722Z,9.17
2018-08-18T13:07:20.576Z,7.80
2018-08-18T13:10:07.477Z,8.97
2018-08-18T13:12:42.422Z,9.17
2018-08-18T13:15:18.212Z,8.07
2018-08-18T13:17:54.522Z,8.60
2018-08-18T13:20:29.552Z,9.03
2018-08-18T13:23:04.759Z,7.83
2018-08-18T13:25:41.263Z,8.03
2018-08-18T13:28:17.050Z,7.60
2018-08-18T13:30:52.365Z,7.90
2018-08-18T13:33:30.003Z,7.83
2018-08-18T13:36:05.179Z,7.23
2018-08-18T13:38:40.450Z,7.97
2018-08-18T13:41:15.665Z,8.60
2018-08-18T13:43:50.651Z,8.07
2018-08-18T13:46:36.894Z,9.40
2018-08-18T13:49:12.474Z,8.30
2018-08-18T13:51:47.916Z,8.57
2018-08-18T13:54:23.080Z,8.43
2018-08-18T13:56:58.206Z,7.17
2018-08-18T13:59:41.269Z,6.80
2018-08-18T14:02:16.393Z,6.63
2018-08-18T14:04:51.722Z,7.60
2018-08-18T14:07:26.802Z,7.73
2018-08-18T14:10:02.117Z,7.73
2018-08-18T14:12:37.216Z,7.43
2018-08-18T14:15:13.189Z,8.10
2018-08-18T14:17:51.986Z,7.20
2018-08-18T14:20:27.162Z,7.70
2018-08-18T14:23:08.316Z,7.60
2018-08-18T14:25:43.677Z,7.60
2018-08-18T14:28:18.636Z,8.53
2018-08-18T14:30:53.825Z,8.33
2018-08-18T14:33:29.293Z,7.30
2018-08-18T14:36:10.707Z,9.53
2018-08-18T14:38:47.369Z,9.40
2018-08-18T14:41:37.112Z,10.10
2018-08-18T14:44:12.329Z,9.20
2018-08-18T14:46:47.584Z,9.60
2018-08-18T14:49:23.060Z,9.73
2018-08-18T14:51:58.128Z,10.80
2018-08-18T14:54:33.544Z,9.27
2018-08-18T14:57:09.453Z,9.70
2018-08-18T14:59:44.993Z,8.27
2018-08-18T15:02:20.172Z,8.67
2018-08-18T15:04:55.087Z,9.47
2018-08-18T15:07:31.093Z,8.37
2018-08-18T15:10:06.098Z,9.03
2018-08-18T15:12:41.330Z,7.90
2018-08-18T15:15:16.429Z,8.53
2018-08-18T15:17:52.733Z,8.77
2018-08-18T15:20:29.477Z,8.33
2018-08-18T15:23:06.329Z,7.60
2018-08-18T15:25:42.305Z,8.20
2018-08-18T15:28:19.159Z,7.53
2018-08-18T15:30:55.245Z,7.23
2018-08-18T15:33:30.617Z,7.20
2018-08-18T15:36:16.425Z,7.73
2018-08-18T15:38:52.573Z,6.90
2018-08-18T15:41:28.333Z,7.20
2018-08-18T15:44:09.260Z,7.00
2018-08-18T15:46:44.398Z,7.07
2018-08-18T15:49:20.078Z,6.73
2018-08-18T15:51:56.514Z,7.03
2018-08-18T15:54:31.677Z,6.60
2018-08-18T15:57:07.216Z,7.30
2018-08-18T15:59:49.656Z,7.20
2018-08-18T16:02:24.945Z,7.60
2018-08-18T16:05:00.573Z,6.53
2018-08-18T16:07:35.678Z,7.57
2018-08-18T16:10:10.730Z,8.30
2018-08-18T16:12:47.029Z,7.57
2018-08-18T16:15:23.612Z,7.33
2018-08-18T16:17:58.768Z,6.97
2018-08-18T16:20:33.853Z,7.93
2018-08-18T16:23:13.089Z,7.07
2018-08-18T16:25:48.240Z,7.00
2018-08-18T16:28:40.533Z,7.40
2018-08-18T16:31:15.668Z,7.10
2018-08-18T16:33:52.034Z,7.10
2018-08-18T16:36:30.880Z,7.20
2018-08-18T16:39:06.731Z,6.47
2018-08-18T16:41:41.897Z,6.93
2018-08-18T16:44:17.524Z,6.80
2018-08-18T16:46:52.654Z,7.20
2018-08-18T16:49:27.943Z,6.93
2018-08-18T16:52:03.000Z,7.43
2018-08-18T16:54:38.153Z,6.70
2018-08-18T16:57:13.369Z,6.23
2018-08-18T16:59:48.852Z,6.75
2018-08-18T17:02:34.018Z,7.40
2018-08-18T17:05:10.183Z,7.85
2018-08-18T17:07:45.861Z,7.42
2018-08-18T17:10:21.609Z,7.35
2018-08-18T17:12:59.417Z,7.03
2018-08-18T17:15:34.945Z,7.05
2018-08-18T17:18:10.082Z,7.03
2018-08-18T17:20:55.391Z,6.58
2018-08-18T17:23:32.427Z,6.70
2018-08-18T17:26:08.197Z,6.28
2018-08-18T17:28:43.563Z,6.97
2018-08-18T17:31:18.969Z,7.10
2018-08-18T17:33:54.430Z,6.80
2018-08-18T17:36:29.806Z,6.45
2018-08-18T17:39:06.665Z,6.37
2018-08-18T17:41:42.205Z,7.20
2018-08-18T17:44:17.654Z,7.28
2018-08-18T17:46:54.996Z,6.70
2018-08-18T17:49:30.625Z,9.78
2018-08-18T17:52:08.470Z,6.85
2018-08-18T17:54:53.359Z,7.08
2018-08-18T17:57:28.690Z,7.05
2018-08-18T18:00:10.565Z,6.58
2018-08-18T18:02:52.610Z,7.33
2018-08-18T18:05:29.955Z,7.58
2018-08-18T18:08:06.910Z,9.00
2018-08-18T18:10:42.638Z,8.60
2018-08-18T18:13:24.414Z,7.92
2018-08-18T18:16:00.339Z,7.87
2018-08-18T18:18:41.107Z,7.90
2018-08-18T18:21:16.611Z,7.95
2018-08-18T18:23:53.301Z,8.58
2018-08-18T18:26:29.731Z,8.05
2018-08-18T18:29:05.317Z,8.53
2018-08-18T18:31:41.320Z,8.45
2018-08-18T18:34:16.726Z,8.73
2018-08-18T18:36:52.418Z,8.38
2018-08-18T18:39:27.806Z,8.58
2018-08-18T18:42:03.340Z,9.35
2018-08-18T18:44:39.049Z,8.43
2018-08-18T18:47:14.534Z,8.85
2018-08-18T18:49:50.262Z,8.75
2018-08-18T18:52:26.451Z,8.90
2018-08-18T18:55:01.883Z,9.63
2018-08-18T18:57:37.165Z,9.78
2018-08-18T19:00:12.801Z,9.53
2018-08-18T19:02:48.418Z,10.48
2018-08-18T19:05:26.392Z,12.47
2018-08-18T19:08:07.047Z,13.28
2018-08-18T19:10:42.813Z,12.25
2018-08-18T19:13:18.058Z,11.83
2018-08-18T19:15:53.661Z,12.53
2018-08-18T19:18:29.339Z,11.57
2018-08-18T19:21:04.745Z,10.53
2018-08-18T19:23:40.241Z,10.90
2018-08-18T19:26:15.911Z,11.75
2018-08-18T19:28:51.519Z,11.00
2018-08-18T19:31:35.639Z,11.60
2018-08-18T19:34:13.823Z,11.65
2018-08-18T19:37:08.897Z,11.50
2018-08-18T19:39:44.188Z,11.35
2018-08-18T19:42:20.215Z,11.10
2018-08-18T19:44:55.717Z,10.48
2018-08-18T19:47:36.521Z,10.60
2018-08-18T19:50:12.081Z,11.08
2018-08-18T19:52:47.597Z,11.50
2018-08-18T19:55:23.182Z,11.03
2018-08-18T19:57:58.662Z,10.50
2018-08-18T20:00:34.786Z,10.82
2018-08-18T20:03:11.743Z,10.60
2018-08-18T20:05:47.430Z,10.93
2018-08-18T20:08:25.519Z,11.03
2018-08-18T20:11:01.811Z,11.80
2018-08-18T20:13:37.317Z,10.90
2018-08-18T20:16:13.005Z,10.95
2018-08-18T20:18:49.308Z,10.60
2018-08-18T20:21:25.002Z,11.00
2018-08-18T20:24:00.581Z,10.70
2018-08-18T20:26:36.191Z,10.95
2018-08-18T20:29:11.570Z,11.22
2018-08-18T20:31:58.391Z,11.20
2018-08-18T20:34:33.984Z,11.05
2018-08-18T20:37:09.619Z,11.45
2018-08-18T20:39:45.217Z,11.57
2018-08-18T20:42:27.109Z,11.83
2018-08-18T20:45:02.806Z,12.13
2018-08-18T20:47:39.374Z,11.50
2018-08-18T20:50:15.578Z,12.20
2018-08-18T20:52:52.878Z,11.50
2018-08-18T20:55:28.896Z,11.33
2018-08-18T20:58:04.131Z,11.00
2018-08-18T21:00:39.539Z,11.30
2018-08-18T21:03:15.046Z,11.78
2018-08-18T21:05:50.485Z,11.75
2018-08-18T21:08:25.887Z,11.55
2018-08-18T21:11:01.296Z,12.37
2018-08-18T21:13:37.739Z,12.40
2018-08-18T21:16:13.770Z,12.35
2018-08-18T21:18:49.478Z,11.90
2018-08-18T21:21:35.629Z,12.25
2018-08-18T21:24:11.187Z,12.28
2018-08-18T21:26:47.617Z,12.35
2018-08-18T21:29:26.276Z,12.33
2018-08-18T21:32:01.467Z,12.23
2018-08-18T21:34:43.993Z,12.60
2018-08-18T21:37:19.930Z,12.65
2018-08-18T21:39:55.162Z,11.90
2018-08-18T21:42:30.833Z,12.50
2018-08-18T21:45:09.686Z,12.95
2018-08-18T21:47:45.831Z,13.10
2018-08-18T21:50:21.310Z,12.93
2018-08-18T21:53:03.167Z,13.22
2018-08-18T21:55:38.878Z,12.53
2018-08-18T21:58:14.251Z,12.43
2018-08-18T22:00:49.918Z,13.25
2018-08-18T22:03:25.404Z,13.35
2018-08-18T22:06:00.971Z,13.20
2018-08-18T22:08:36.350Z,13.40
2018-08-18T22:11:16.353Z,12.10
2018-08-18T22:13:52.635Z,12.70
2018-08-18T22:16:28.574Z,13.45
2018-08-18T22:19:04.654Z,12.95
2018-08-18T22:21:40.545Z,13.10
2018-08-18T22:24:16.053Z,13.28
2018-08-18T22:26:51.494Z,14.15
2018-08-18T22:29:27.549Z,14.23
2018-08-18T22:32:08.837Z,13.25
2018-08-18T22:34:44.139Z,14.33
2018-08-18T22:37:19.576Z,13.93
2018-08-18T22:39:55.143Z,13.18
2018-08-18T22:42:30.898Z,13.30
2018-08-18T22:45:17.566Z,13.75
2018-08-18T22:47:53.036Z,12.53
2018-08-18T22:50:28.901Z,13.20
2018-08-18T22:53:04.708Z,13.45
2018-08-18T22:55:40.010Z,13.00
2018-08-18T22:58:15.335Z,14.07
2018-08-18T23:00:56.174Z,13.48
2018-08-18T23:03:32.030Z,15.35
2018-08-18T23:06:07.339Z,13.22
2018-08-18T23:08:43.055Z,14.53
2018-08-18T23:11:19.210Z,14.10
2018-08-18T23:13:54.802Z,15.98
2018-08-18T23:16:30.483Z,14.40
2018-08-18T23:19:05.795Z,14.35
2018-08-18T23:21:41.143Z,13.90
2018-08-18T23:24:40.435Z,13.95
2018-08-18T23:27:15.873Z,14.70
2018-08-18T23:29:51.482Z,13.58
2018-08-18T23:32:26.926Z,14.28
2018-08-18T23:35:02.911Z,14.60
2018-08-18T23:37:37.889Z,15.17
2018-08-18T23:40:12.887Z,14.87
2018-08-18T23:42:48.399Z,13.80
2018-08-18T23:45:24.866Z,13.15
2018-08-18T23:48:05.352Z,13.93
2018-08-18T23:50:41.552Z,13.98
2018-08-18T23:53:18.315Z,16.67
2018-08-18T23:55:58.425Z,16.52
2018-08-18T23:58:33.878Z,15.80
